KGED/GED METAR and TAF weather

Enter ICAO airport designator
Station Type Date Time Source
KGED METAR 2020/07/09 17:54 UTC NOAA

KGED 091754Z AUTO 08011KT 10SM FEW028 31/23 A2998 RMK AO2 SLP150 T03060233 10306 20261 58004


Station Type Date Time Source
KGED Decoded METAR 2020/07/09 17:54 UTC NOAA

GEORGETOWN SUSSEX CO AIRPORT , DE, United States (KGED) 38-41N 075-22W 19M
Jul 09, 2020 - 01:54 PM EDT / 2020.07.09 1754 UTC
Wind: from the E (080 degrees) at 13 MPH (11 KT):0
Visibility: 10 mile(s):0
Sky conditions: mostly clear
Temperature: 87.1 F (30.6 C)
Heat index: 95.4 F (35.2 C):1
Dew Point: 73.9 F (23.3 C)
Relative Humidity: 65%
Pressure (altimeter): 29.98 in. Hg (1015 hPa)
Pressure tendency: 0.01 inches (0.4 hPa) lower than three hours ago
ob: KGED 091754Z AUTO 08011KT 10SM FEW028 31/23 A2998 RMK AO2 SLP150 T03060233 10306 20261 58004
cycle: 18

Station Type Date Time Source
KGED TAF UTC NOAA

Error!

Example: see airport list